createdAt,value
2017-10-08T00:00:20.479Z,97019.45
2017-10-08T00:00:52.235Z,97017.70
2017-10-08T00:01:24.184Z,97013.92
2017-10-08T00:01:55.838Z,97014.76
2017-10-08T00:02:27.481Z,97017.67
2017-10-08T00:02:59.128Z,97019.89
2017-10-08T00:03:30.773Z,97019.49
2017-10-08T00:04:02.595Z,97016.50
2017-10-08T00:04:34.249Z,97018.19
2017-10-08T00:05:05.907Z,97012.59
2017-10-08T00:05:37.601Z,97014.28
2017-10-08T00:06:09.268Z,97019.05
2017-10-08T00:06:40.922Z,97017.77
2017-10-08T00:07:12.722Z,97013.92
2017-10-08T00:07:44.370Z,97013.94
2017-10-08T00:08:16.144Z,97014.36
2017-10-08T00:08:47.797Z,97011.83
2017-10-08T00:09:19.731Z,97011.41
2017-10-08T00:09:51.684Z,97008.85
2017-10-08T00:10:23.337Z,97008.05
2017-10-08T00:10:54.989Z,97006.37
2017-10-08T00:11:26.643Z,97008.58
2017-10-08T00:11:58.289Z,97010.67
2017-10-08T00:12:29.937Z,97012.00
2017-10-08T00:13:01.586Z,97010.76
2017-10-08T00:13:33.237Z,97004.87
2017-10-08T00:14:05.078Z,97011.70
2017-10-08T00:14:36.780Z,97013.41
2017-10-08T00:15:08.430Z,97016.29
2017-10-08T00:15:40.077Z,97012.48
2017-10-08T00:16:17.530Z,97010.30
2017-10-08T00:16:49.394Z,97016.25
2017-10-08T00:17:21.120Z,97012.36
2017-10-08T00:17:52.787Z,97010.67
2017-10-08T00:18:24.433Z,97012.00
2017-10-08T00:18:56.077Z,97010.25
2017-10-08T00:19:27.725Z,97010.23
2017-10-08T00:19:59.365Z,97011.52
2017-10-08T00:20:31.186Z,97008.11
2017-10-08T00:21:02.837Z,97010.73
2017-10-08T00:21:34.485Z,97009.05
2017-10-08T00:22:06.137Z,97004.80
2017-10-08T00:22:37.846Z,97004.38
2017-10-08T00:23:09.796Z,97006.93
2017-10-08T00:23:41.452Z,97005.63
2017-10-08T00:24:13.102Z,97006.09
2017-10-08T00:24:44.802Z,96998.42
2017-10-08T00:25:16.671Z,97008.23
2017-10-08T00:25:48.328Z,97006.52
2017-10-08T00:26:19.981Z,96999.34
2017-10-08T00:26:51.625Z,97000.62
2017-10-08T00:27:23.353Z,97001.08
2017-10-08T00:27:55.001Z,96999.80
2017-10-08T00:28:26.830Z,97006.19
2017-10-08T00:28:58.481Z,97001.52
2017-10-08T00:29:30.125Z,96999.88
2017-10-08T00:30:01.775Z,96990.09
2017-10-08T00:30:33.416Z,96997.32
2017-10-08T00:31:05.066Z,96996.48
2017-10-08T00:31:36.713Z,97000.31
2017-10-08T00:32:08.357Z,97000.31
2017-10-08T00:32:40.010Z,96998.18
2017-10-08T00:33:11.653Z,96992.63
2017-10-08T00:33:43.556Z,96994.27
2017-10-08T00:34:15.206Z,96990.94
2017-10-08T00:34:46.913Z,96994.77
2017-10-08T00:35:18.565Z,96992.23
2017-10-08T00:35:50.431Z,96990.17
2017-10-08T00:36:22.081Z,96987.56
2017-10-08T00:36:53.729Z,96985.95
2017-10-08T00:37:25.378Z,96991.47
2017-10-08T00:37:57.021Z,96995.77
2017-10-08T00:38:28.906Z,96988.52
2017-10-08T00:39:00.589Z,96990.23
2017-10-08T00:39:32.237Z,96984.70
2017-10-08T00:40:03.939Z,96988.55
2017-10-08T00:40:35.798Z,96994.54
2017-10-08T00:41:07.649Z,96983.09
2017-10-08T00:41:39.413Z,96987.75
2017-10-08T00:42:11.361Z,96983.11
2017-10-08T00:42:43.013Z,96986.13
2017-10-08T00:43:14.661Z,96988.22
2017-10-08T00:43:46.309Z,96989.47
2017-10-08T00:44:18.130Z,96991.56
2017-10-08T00:44:49.790Z,96987.75
2017-10-08T00:45:21.447Z,96986.06
2017-10-08T00:45:53.090Z,96990.70
2017-10-08T00:46:25.003Z,96991.56
2017-10-08T00:46:56.701Z,96991.56
2017-10-08T00:47:28.349Z,96986.55
2017-10-08T00:48:00.344Z,96984.88
2017-10-08T00:48:32.293Z,96980.19
2017-10-08T00:49:04.175Z,96983.16
2017-10-08T00:49:35.821Z,96978.91
2017-10-08T00:50:07.474Z,96980.19
2017-10-08T00:50:39.125Z,96988.27
2017-10-08T00:51:10.771Z,96983.58
2017-10-08T00:51:42.425Z,96979.80
2017-10-08T00:52:14.109Z,96976.41
2017-10-08T00:52:45.757Z,96984.06
2017-10-08T00:53:17.418Z,96978.53
2017-10-08T00:53:49.313Z,96973.42
2017-10-08T00:54:20.981Z,96976.80
2017-10-08T00:54:52.629Z,96971.34
2017-10-08T00:55:24.272Z,96978.09
2017-10-08T00:55:55.921Z,96972.25
2017-10-08T00:56:27.733Z,96975.13
2017-10-08T00:56:59.393Z,96972.56
2017-10-08T00:57:31.037Z,96979.81
2017-10-08T00:58:02.686Z,96970.48
2017-10-08T00:58:34.329Z,96970.51
2017-10-08T00:59:06.013Z,96973.09
2017-10-08T00:59:37.694Z,96975.22
2017-10-08T01:00:09.542Z,96977.80
2017-10-08T01:00:41.286Z,96975.22
2017-10-08T01:01:12.945Z,96973.50
2017-10-08T01:01:44.597Z,96978.61
2017-10-08T01:02:16.241Z,96975.62
2017-10-08T01:02:47.930Z,96979.03
2017-10-08T01:03:19.759Z,96975.17
2017-10-08T01:03:51.409Z,96980.30
2017-10-08T01:04:23.054Z,96976.89
2017-10-08T01:04:54.729Z,96976.89
2017-10-08T01:05:26.377Z,96975.17
2017-10-08T01:05:58.057Z,96971.34
2017-10-08T01:06:29.706Z,96973.83
2017-10-08T01:07:01.358Z,96973.80
2017-10-08T01:07:33.244Z,96970.41
2017-10-08T01:08:04.897Z,96966.93
2017-10-08T01:08:36.542Z,96971.62
2017-10-08T01:09:08.189Z,96968.26
2017-10-08T01:09:39.834Z,96973.80
2017-10-08T01:10:11.477Z,96968.28
2017-10-08T01:10:43.126Z,96972.89
2017-10-08T01:11:14.774Z,96967.74
2017-10-08T01:11:46.413Z,96968.26
2017-10-08T01:12:18.093Z,96966.51
2017-10-08T01:12:49.972Z,96970.81
2017-10-08T01:13:21.622Z,96966.56
2017-10-08T01:13:53.282Z,96975.96
2017-10-08T01:14:24.932Z,96963.19
2017-10-08T01:14:56.573Z,96966.56
2017-10-08T01:15:28.221Z,96964.86
2017-10-08T01:16:00.044Z,96965.72
2017-10-08T01:16:31.685Z,96963.62
2017-10-08T01:17:03.332Z,96964.45
2017-10-08T01:17:34.973Z,96969.14
2017-10-08T01:18:06.693Z,96962.31
2017-10-08T01:18:38.463Z,96963.61
2017-10-08T01:19:10.109Z,96961.89
2017-10-08T01:19:41.754Z,96957.64
2017-10-08T01:20:13.401Z,96962.30
2017-10-08T01:20:45.049Z,96961.34
2017-10-08T01:21:16.698Z,96963.89
2017-10-08T01:21:48.345Z,96962.14
2017-10-08T01:22:20.169Z,96959.27
2017-10-08T01:22:51.820Z,96961.78
2017-10-08T01:23:23.731Z,96965.97
2017-10-08T01:23:55.573Z,96961.34
2017-10-08T01:24:27.322Z,96962.20
2017-10-08T01:24:59.173Z,96958.70
2017-10-08T01:25:30.822Z,96960.41
2017-10-08T01:26:02.474Z,96956.55
2017-10-08T01:26:34.157Z,96965.44
2017-10-08T01:27:05.809Z,96962.88
2017-10-08T01:27:37.453Z,96965.02
2017-10-08T01:28:09.120Z,96961.23
2017-10-08T01:28:40.798Z,96962.54
2017-10-08T01:29:12.481Z,96962.94
2017-10-08T01:29:44.356Z,96963.38
2017-10-08T01:30:16.008Z,96962.52
2017-10-08T01:30:47.616Z,96959.55
2017-10-08T01:31:19.281Z,96956.13
2017-10-08T01:31:50.981Z,96959.89
2017-10-08T01:32:22.625Z,96962.44
2017-10-08T01:32:54.515Z,96956.89
2017-10-08T01:33:26.395Z,96958.09
2017-10-08T01:33:58.053Z,96953.52
2017-10-08T01:34:29.701Z,96965.83
2017-10-08T01:35:01.354Z,96958.19
2017-10-08T01:35:33.028Z,96962.00
2017-10-08T01:36:04.911Z,96955.31
2017-10-08T01:36:36.557Z,96959.17
2017-10-08T01:37:08.201Z,96952.00
2017-10-08T01:37:39.841Z,96955.00
2017-10-08T01:38:11.481Z,96952.08
2017-10-08T01:38:43.190Z,96961.41
2017-10-08T01:39:15.031Z,96951.66
2017-10-08T01:39:46.780Z,96949.05
2017-10-08T01:40:18.433Z,96954.97
2017-10-08T01:40:50.081Z,96956.71
2017-10-08T01:41:21.721Z,96955.44
2017-10-08T01:41:53.369Z,96953.72
2017-10-08T01:42:25.013Z,96951.66
2017-10-08T01:42:56.940Z,96955.91
2017-10-08T01:43:28.601Z,96955.91
2017-10-08T01:44:00.241Z,96956.39
2017-10-08T01:44:31.885Z,96962.41
2017-10-08T01:45:03.533Z,96961.57
2017-10-08T01:45:35.181Z,96953.95
2017-10-08T01:46:06.833Z,96959.14
2017-10-08T01:46:38.481Z,96953.61
2017-10-08T01:47:10.382Z,96954.89
2017-10-08T01:47:42.278Z,96958.72
2017-10-08T01:48:13.929Z,96950.27
2017-10-08T01:48:45.581Z,96953.28
2017-10-08T01:49:17.232Z,96953.28
2017-10-08T01:49:48.896Z,96951.17
2017-10-08T01:50:20.577Z,96949.88
2017-10-08T01:50:52.232Z,96954.54
2017-10-08T01:51:23.882Z,96951.98
2017-10-08T01:51:55.773Z,96950.71
2017-10-08T01:52:27.473Z,96948.16
2017-10-08T01:52:59.118Z,96947.76
2017-10-08T01:53:30.761Z,96948.62
2017-10-08T01:54:02.648Z,96955.86
2017-10-08T01:54:34.297Z,96941.81
2017-10-08T01:55:05.949Z,96945.23
2017-10-08T01:55:37.597Z,96950.73
2017-10-08T01:56:09.236Z,96948.59
2017-10-08T01:56:40.890Z,96953.28
2017-10-08T01:57:12.533Z,96946.48
2017-10-08T01:57:44.221Z,96946.92
2017-10-08T01:58:16.090Z,96945.70
2017-10-08T01:58:47.740Z,96944.45
2017-10-08T01:59:19.389Z,96951.25
2017-10-08T01:59:51.094Z,96945.74
2017-10-08T02:00:22.966Z,96944.48
2017-10-08T02:00:54.617Z,96941.14
2017-10-08T02:01:26.261Z,96949.23
2017-10-08T02:01:57.905Z,96942.93
2017-10-08T02:02:29.549Z,96945.08
2017-10-08T02:03:01.684Z,96943.44
2017-10-08T02:03:33.433Z,96939.14
2017-10-08T02:04:05.085Z,96939.19
2017-10-08T02:04:36.737Z,96943.02
2017-10-08T02:05:08.421Z,96939.14
2017-10-08T02:05:40.074Z,96939.14
2017-10-08T02:06:11.950Z,96937.86
2017-10-08T02:06:43.601Z,96938.34
2017-10-08T02:07:15.246Z,96941.70
2017-10-08T02:07:46.893Z,96941.75
2017-10-08T02:08:18.533Z,96938.34
2017-10-08T02:08:50.177Z,96940.07
2017-10-08T02:09:21.863Z,96940.07
2017-10-08T02:09:53.554Z,96942.64
2017-10-08T02:10:25.201Z,96934.20
2017-10-08T02:10:56.854Z,96941.84
2017-10-08T02:11:28.496Z,96938.03
2017-10-08T02:12:00.141Z,96939.31
2017-10-08T02:12:31.791Z,96937.20
2017-10-08T02:13:03.436Z,96940.17
2017-10-08T02:13:35.077Z,96938.47
2017-10-08T02:14:06.729Z,96935.94
2017-10-08T02:14:38.525Z,96938.08
2017-10-08T02:15:10.474Z,96940.68
2017-10-08T02:15:42.423Z,96927.50
2017-10-08T02:16:14.080Z,96932.60
2017-10-08T02:16:45.733Z,96936.03
2017-10-08T02:17:17.378Z,96932.16
2017-10-08T02:17:49.021Z,96927.08
2017-10-08T02:18:20.665Z,96941.58
2017-10-08T02:18:52.313Z,96937.31
2017-10-08T02:19:23.956Z,96936.53
2017-10-08T02:19:55.866Z,96935.59
2017-10-08T02:20:27.707Z,96940.30
2017-10-08T02:20:59.457Z,96942.44
2017-10-08T02:21:31.104Z,96934.78
2017-10-08T02:22:02.759Z,96939.45
2017-10-08T02:22:34.413Z,96934.39
2017-10-08T02:23:06.062Z,96933.12
2017-10-08T02:23:37.716Z,96933.14
2017-10-08T02:24:09.364Z,96933.55
2017-10-08T02:24:41.013Z,96934.41
2017-10-08T02:25:12.701Z,96939.54
2017-10-08T02:25:44.350Z,96945.88
2017-10-08T02:26:15.999Z,96940.81
2017-10-08T02:26:47.649Z,96934.85
2017-10-08T02:27:19.294Z,96936.56
2017-10-08T02:27:50.946Z,96933.58
2017-10-08T02:28:22.594Z,96932.30
2017-10-08T02:28:54.245Z,96932.72
2017-10-08T02:29:25.897Z,96932.30
2017-10-08T02:29:57.677Z,96939.50
2017-10-08T02:30:29.324Z,96938.22
2017-10-08T02:31:01.165Z,96937.33
2017-10-08T02:31:32.862Z,96933.48
2017-10-08T02:32:04.514Z,96935.16
2017-10-08T02:32:36.165Z,96934.73
2017-10-08T02:33:07.835Z,96930.89
2017-10-08T02:33:39.485Z,96938.55
2017-10-08T02:34:11.129Z,96933.88
2017-10-08T02:34:42.773Z,96932.60
2017-10-08T02:35:14.437Z,96936.41
2017-10-08T02:35:46.085Z,96935.52
2017-10-08T02:36:17.752Z,96936.03
2017-10-08T02:36:49.449Z,96940.27
2017-10-08T02:37:21.093Z,96935.58
2017-10-08T02:37:52.741Z,96938.45
2017-10-08T02:38:24.394Z,96939.29
2017-10-08T02:38:56.058Z,96938.01
2017-10-08T02:39:27.845Z,96934.64
2017-10-08T02:39:59.494Z,96947.75
2017-10-08T02:40:31.146Z,96946.11
2017-10-08T02:41:03.078Z,96944.00
2017-10-08T02:41:34.923Z,96940.17
2017-10-08T02:42:06.613Z,96946.13
2017-10-08T02:42:38.262Z,96944.86
2017-10-08T02:43:09.921Z,96939.84
2017-10-08T02:43:41.593Z,96943.23
2017-10-08T02:44:13.283Z,96941.98
2017-10-08T02:44:44.934Z,96946.20
2017-10-08T02:45:16.586Z,96948.36
2017-10-08T02:45:48.238Z,96946.25
2017-10-08T02:46:19.885Z,96948.36
2017-10-08T02:46:51.730Z,96946.20
2017-10-08T02:47:23.392Z,96947.09
2017-10-08T02:47:55.045Z,96943.23
2017-10-08T02:48:26.702Z,96944.87
2017-10-08T02:48:58.575Z,96943.58
2017-10-08T02:49:30.281Z,96946.13
2017-10-08T02:50:01.938Z,96946.20
2017-10-08T02:50:33.819Z,96953.45
2017-10-08T02:51:05.503Z,96946.23
2017-10-08T02:51:37.157Z,96945.37
2017-10-08T02:52:08.810Z,96946.20
2017-10-08T02:52:40.454Z,96950.45
2017-10-08T02:53:12.097Z,96947.01
2017-10-08T02:53:43.741Z,96949.96
2017-10-08T02:54:15.381Z,96943.90
2017-10-08T02:54:47.032Z,96948.98
2017-10-08T02:55:18.677Z,96950.68
2017-10-08T02:55:50.322Z,96945.06
2017-10-08T02:56:22.204Z,96936.73
2017-10-08T02:56:53.868Z,96940.80
2017-10-08T02:57:25.750Z,96942.93
2017-10-08T02:57:57.394Z,96948.45
2017-10-08T02:58:29.037Z,96950.93
2017-10-08T02:59:00.689Z,96950.93
2017-10-08T02:59:32.331Z,96948.43
2017-10-08T03:00:03.981Z,96950.52
2017-10-08T03:00:35.628Z,96952.64
2017-10-08T03:01:07.290Z,96948.78
2017-10-08T03:01:38.986Z,96951.28
2017-10-08T03:02:10.629Z,96951.73
2017-10-08T03:02:42.278Z,96951.34
2017-10-08T03:03:13.921Z,96956.89
2017-10-08T03:03:45.570Z,96950.06
2017-10-08T03:04:17.224Z,96955.55
2017-10-08T03:04:48.874Z,96952.96
2017-10-08T03:05:20.752Z,96955.02
2017-10-08T03:05:52.402Z,96957.66
2017-10-08T03:06:24.085Z,96954.64
2017-10-08T03:06:55.989Z,96952.08
2017-10-08T03:07:27.869Z,96953.36
2017-10-08T03:07:59.513Z,96959.27
2017-10-08T03:08:31.222Z,96951.59
2017-10-08T03:09:02.874Z,96957.95
2017-10-08T03:09:34.525Z,96958.81
2017-10-08T03:10:06.173Z,96964.77
2017-10-08T03:10:37.845Z,96962.66
2017-10-08T03:11:09.491Z,96959.34
2017-10-08T03:11:41.381Z,96958.92
2017-10-08T03:12:13.083Z,96967.47
2017-10-08T03:12:44.729Z,96958.16
2017-10-08T03:13:16.578Z,96963.63
2017-10-08T03:13:48.252Z,96960.22
2017-10-08T03:14:19.909Z,96958.09
2017-10-08T03:14:51.557Z,96964.45
2017-10-08T03:15:23.197Z,96955.55
2017-10-08T03:15:54.842Z,96961.06
2017-10-08T03:16:26.486Z,96961.55
2017-10-08T03:16:58.342Z,96957.75
2017-10-08T03:17:30.053Z,96956.39
2017-10-08T03:18:01.752Z,96960.66
2017-10-08T03:18:33.402Z,96964.11
2017-10-08T03:19:05.293Z,96959.87
2017-10-08T03:19:36.945Z,96963.70
2017-10-08T03:20:08.876Z,96964.15
2017-10-08T03:20:40.525Z,96963.22
2017-10-08T03:21:12.173Z,96963.59
2017-10-08T03:21:43.820Z,96965.75
2017-10-08T03:22:15.481Z,96959.86
2017-10-08T03:22:47.129Z,96963.22
2017-10-08T03:23:18.777Z,96961.13
2017-10-08T03:23:50.429Z,96956.47
2017-10-08T03:24:22.082Z,96965.83
2017-10-08T03:24:53.964Z,96971.79
2017-10-08T03:25:25.613Z,96969.25
2017-10-08T03:25:57.306Z,96970.13
2017-10-08T03:26:29.197Z,96971.41
2017-10-08T03:27:00.897Z,96962.91
2017-10-08T03:27:32.540Z,96970.59
2017-10-08T03:28:04.384Z,96963.03
2017-10-08T03:28:36.072Z,96965.58
2017-10-08T03:29:07.721Z,96963.91
2017-10-08T03:29:39.365Z,96963.07
2017-10-08T03:30:11.015Z,96968.59
2017-10-08T03:30:42.674Z,96965.60
2017-10-08T03:31:14.318Z,96963.05
2017-10-08T03:31:45.961Z,96965.56
2017-10-08T03:32:17.641Z,96969.73
2017-10-08T03:32:49.531Z,96967.63
2017-10-08T03:33:21.181Z,96965.89
2017-10-08T03:33:52.835Z,96968.92
2017-10-08T03:34:24.481Z,96962.59
2017-10-08T03:34:56.133Z,96971.89
2017-10-08T03:35:27.808Z,96962.59
2017-10-08T03:35:59.672Z,96965.09
2017-10-08T03:36:31.375Z,96971.11
2017-10-08T03:37:03.026Z,96971.11
2017-10-08T03:37:34.882Z,96970.69
2017-10-08T03:38:06.530Z,96969.85
2017-10-08T03:38:38.193Z,96969.50
2017-10-08T03:39:09.838Z,96978.44
2017-10-08T03:39:41.489Z,96969.11
2017-10-08T03:40:13.138Z,96967.41
2017-10-08T03:40:44.786Z,96972.54
2017-10-08T03:41:16.432Z,96973.02
2017-10-08T03:41:48.348Z,96972.61
2017-10-08T03:42:20.013Z,96971.34
2017-10-08T03:42:51.657Z,96974.33
2017-10-08T03:43:23.298Z,96975.23
2017-10-08T03:43:54.945Z,96977.30
2017-10-08T03:44:26.605Z,96966.69
2017-10-08T03:44:58.256Z,96979.92
2017-10-08T03:45:29.901Z,96968.89
2017-10-08T03:46:01.559Z,96970.20
2017-10-08T03:46:33.433Z,96979.12
2017-10-08T03:47:05.129Z,96979.59
2017-10-08T03:47:36.773Z,96977.44
2017-10-08T03:48:08.421Z,96973.26
2017-10-08T03:48:40.115Z,96977.53
2017-10-08T03:49:11.765Z,96975.83
2017-10-08T03:49:43.409Z,96975.91
2017-10-08T03:50:15.057Z,96975.06
2017-10-08T03:50:46.741Z,96979.31
2017-10-08T03:51:18.518Z,96978.45
2017-10-08T03:51:50.368Z,96975.91
2017-10-08T03:52:22.018Z,96978.02
2017-10-08T03:52:53.668Z,96978.47
2017-10-08T03:53:25.317Z,96974.21
2017-10-08T03:53:56.965Z,96984.42
2017-10-08T03:54:28.676Z,96975.98
2017-10-08T03:55:00.325Z,96977.27
2017-10-08T03:55:31.969Z,96982.36
2017-10-08T03:56:03.621Z,96977.64
2017-10-08T03:56:35.274Z,96976.78
2017-10-08T03:57:06.917Z,96980.94
2017-10-08T03:57:38.561Z,96980.98
2017-10-08T03:58:10.209Z,96981.77
2017-10-08T03:58:41.852Z,96971.87
2017-10-08T03:59:13.505Z,96979.11
2017-10-08T03:59:45.157Z,96980.78
2017-10-08T04:00:17.040Z,96979.06
2017-10-08T04:00:48.997Z,96973.49
2017-10-08T04:01:20.649Z,96976.09
2017-10-08T04:01:52.301Z,96970.52
2017-10-08T04:02:23.946Z,96973.49
2017-10-08T04:02:55.593Z,96973.98
2017-10-08T04:03:27.241Z,96967.60
2017-10-08T04:03:59.079Z,96971.02
2017-10-08T04:04:30.724Z,96971.84
2017-10-08T04:05:02.413Z,96973.07
2017-10-08T04:05:34.081Z,96965.88
2017-10-08T04:06:05.729Z,96972.70
2017-10-08T04:06:37.380Z,96971.84
2017-10-08T04:07:09.030Z,96972.75
2017-10-08T04:07:40.950Z,96973.22
2017-10-08T04:08:12.602Z,96972.80
2017-10-08T04:08:44.253Z,96978.34
2017-10-08T04:09:15.901Z,96975.03
2017-10-08T04:09:47.826Z,96978.44
2017-10-08T04:10:19.480Z,96976.32
2017-10-08T04:10:51.130Z,96971.66
2017-10-08T04:11:22.777Z,96981.42
2017-10-08T04:11:54.701Z,96982.61
2017-10-08T04:12:26.350Z,96986.77
2017-10-08T04:12:58.006Z,96970.25
2017-10-08T04:13:29.670Z,96983.78
2017-10-08T04:14:01.576Z,96972.30
2017-10-08T04:14:33.228Z,96978.23
2017-10-08T04:15:04.877Z,96981.20
2017-10-08T04:15:36.550Z,96980.80
2017-10-08T04:16:08.205Z,96983.75
2017-10-08T04:16:39.862Z,96976.88
2017-10-08T04:17:11.552Z,96985.80
2017-10-08T04:17:43.205Z,96990.06
2017-10-08T04:18:15.021Z,96987.08
2017-10-08T04:18:46.678Z,96984.98
2017-10-08T04:19:18.357Z,96990.09
2017-10-08T04:19:50.010Z,96986.73
2017-10-08T04:20:21.893Z,96988.86
2017-10-08T04:20:53.545Z,96991.02
2017-10-08T04:21:25.193Z,96993.98
2017-10-08T04:21:56.839Z,96991.00
2017-10-08T04:22:28.530Z,97000.81
2017-10-08T04:23:00.409Z,96991.55
2017-10-08T04:23:32.061Z,96999.23
2017-10-08T04:24:03.710Z,96997.51
2017-10-08T04:24:35.357Z,96999.63
2017-10-08T04:25:07.001Z,96996.58
2017-10-08T04:25:38.645Z,96999.11
2017-10-08T04:26:10.293Z,96996.96
2017-10-08T04:26:41.937Z,96993.98
2017-10-08T04:27:13.588Z,96994.41
2017-10-08T04:27:45.485Z,96998.67
2017-10-08T04:28:17.443Z,97003.80
2017-10-08T04:28:49.392Z,96995.68
2017-10-08T04:29:21.041Z,97002.84
2017-10-08T04:29:52.689Z,97001.57
2017-10-08T04:30:24.373Z,96996.03
2017-10-08T04:30:56.268Z,96996.41
2017-10-08T04:31:27.928Z,97001.52
2017-10-08T04:31:59.573Z,97001.37
2017-10-08T04:32:31.222Z,97002.19
2017-10-08T04:33:02.869Z,97002.58
2017-10-08T04:33:34.521Z,97002.58
2017-10-08T04:34:06.165Z,97009.73
2017-10-08T04:34:38.040Z,97002.05
2017-10-08T04:35:10.017Z,96999.54
2017-10-08T04:35:41.721Z,96998.68
2017-10-08T04:36:13.499Z,97001.21
2017-10-08T04:36:45.250Z,97003.77
2017-10-08T04:37:17.007Z,97006.73
2017-10-08T04:37:48.657Z,97001.63
2017-10-08T04:38:20.306Z,97000.73
2017-10-08T04:38:51.956Z,96998.60
2017-10-08T04:39:23.617Z,97001.59
2017-10-08T04:39:55.408Z,96993.84
2017-10-08T04:40:27.065Z,96990.83
2017-10-08T04:40:58.753Z,96999.25
2017-10-08T04:41:30.400Z,97000.06
2017-10-08T04:42:02.049Z,97006.89
2017-10-08T04:42:33.892Z,97002.64
2017-10-08T04:43:05.554Z,97005.95
2017-10-08T04:43:37.212Z,97000.06
2017-10-08T04:44:09.094Z,96995.34
2017-10-08T04:44:41.057Z,97000.88
2017-10-08T04:45:12.750Z,97002.24
2017-10-08T04:45:44.433Z,97007.03
2017-10-08T04:46:16.076Z,97003.22
2017-10-08T04:46:47.726Z,97005.33
2017-10-08T04:47:19.377Z,96998.97
2017-10-08T04:47:51.265Z,97001.99
2017-10-08T04:48:23.149Z,96994.70
2017-10-08T04:48:54.799Z,97010.00
2017-10-08T04:49:26.448Z,97004.07
2017-10-08T04:49:58.099Z,97008.38
2017-10-08T04:50:29.801Z,96999.86
2017-10-08T04:51:01.449Z,97005.41
2017-10-08T04:51:33.093Z,97007.09
2017-10-08T04:52:04.737Z,97002.45
2017-10-08T04:52:36.382Z,97007.09
2017-10-08T04:53:08.025Z,97011.34
2017-10-08T04:53:39.938Z,97010.53
2017-10-08T04:54:11.592Z,97011.39
2017-10-08T04:54:43.245Z,97009.23
2017-10-08T04:55:14.893Z,97008.02
2017-10-08T04:55:46.586Z,97009.31
2017-10-08T04:56:18.451Z,97011.38
2017-10-08T04:56:50.110Z,97014.40
2017-10-08T04:57:21.754Z,97008.89
2017-10-08T04:57:53.397Z,97011.52
2017-10-08T04:58:25.088Z,97009.00
2017-10-08T04:58:56.741Z,97006.47
2017-10-08T04:59:28.568Z,97008.22
2017-10-08T05:00:00.214Z,97009.95
2017-10-08T05:00:31.873Z,97009.95
2017-10-08T05:01:03.542Z,97004.44
2017-10-08T05:01:35.236Z,97012.51
2017-10-08T05:02:07.087Z,97013.00
2017-10-08T05:02:38.729Z,97007.42
2017-10-08T05:03:10.377Z,97008.77
2017-10-08T05:03:42.024Z,97012.19
2017-10-08T05:04:13.700Z,97010.14
2017-10-08T05:04:45.576Z,97005.05
2017-10-08T05:05:17.221Z,97011.42
2017-10-08T05:05:48.865Z,97016.41
2017-10-08T05:06:20.513Z,97019.42
2017-10-08T05:06:52.162Z,97010.07
2017-10-08T05:07:23.859Z,97015.17
2017-10-08T05:07:55.746Z,97017.80
2017-10-08T05:08:27.394Z,97015.34
2017-10-08T05:08:59.056Z,97013.24
2017-10-08T05:09:30.732Z,97016.22
2017-10-08T05:10:02.413Z,97014.13
2017-10-08T05:10:34.213Z,97017.95
2017-10-08T05:11:05.967Z,97015.87
2017-10-08T05:11:37.916Z,97015.03
2017-10-08T05:12:09.865Z,97015.02
2017-10-08T05:12:41.545Z,97017.59
2017-10-08T05:13:13.192Z,97020.98
2017-10-08T05:13:44.844Z,97018.86
2017-10-08T05:14:16.489Z,97018.84
2017-10-08T05:14:48.138Z,97016.67
2017-10-08T05:15:20.021Z,97023.03
2017-10-08T05:15:51.973Z,97021.74
2017-10-08T05:16:23.926Z,97017.52
2017-10-08T05:16:55.617Z,97016.63
2017-10-08T05:17:27.261Z,97023.03
2017-10-08T05:17:58.909Z,97020.55
2017-10-08T05:18:30.830Z,97021.41
2017-10-08T05:19:02.635Z,97019.73
2017-10-08T05:19:34.387Z,97024.86
2017-10-08T05:20:06.336Z,97021.87
2017-10-08T05:20:37.989Z,97025.33
2017-10-08T05:21:09.637Z,97020.23
2017-10-08T05:21:41.332Z,97024.09
2017-10-08T05:22:13.212Z,97027.09
2017-10-08T05:22:44.861Z,97023.23
2017-10-08T05:23:16.509Z,97024.53
2017-10-08T05:23:48.157Z,97024.53
2017-10-08T05:24:19.797Z,97021.56
2017-10-08T05:24:51.442Z,97024.16
2017-10-08T05:25:23.089Z,97030.13
2017-10-08T05:25:54.741Z,97026.67
2017-10-08T05:26:26.388Z,97027.58
2017-10-08T05:26:58.077Z,97026.72
2017-10-08T05:27:29.938Z,97025.86
2017-10-08T05:28:01.598Z,97033.95
2017-10-08T05:28:33.249Z,97031.00
2017-10-08T05:29:04.892Z,97032.27
2017-10-08T05:29:36.572Z,97028.45
2017-10-08T05:30:08.451Z,97029.80
2017-10-08T05:30:40.295Z,97033.63
2017-10-08T05:31:12.047Z,97034.09
2017-10-08T05:31:43.995Z,97034.09
2017-10-08T05:32:15.646Z,97036.64
2017-10-08T05:32:47.473Z,97038.31
2017-10-08T05:33:19.252Z,97032.81
2017-10-08T05:33:50.913Z,97037.08
2017-10-08T05:34:22.790Z,97037.50
2017-10-08T05:34:54.458Z,97040.12
2017-10-08T05:35:26.120Z,97037.56
2017-10-08T05:35:57.959Z,97036.73
2017-10-08T05:36:29.609Z,97040.98
2017-10-08T05:37:01.335Z,97042.27
2017-10-08T05:37:33.231Z,97037.22
2017-10-08T05:38:04.881Z,97038.86
2017-10-08T05:38:36.568Z,97041.43
2017-10-08T05:39:08.217Z,97051.69
2017-10-08T05:39:39.862Z,97033.41
2017-10-08T05:40:11.509Z,97041.91
2017-10-08T05:40:43.154Z,97041.50
2017-10-08T05:41:14.805Z,97042.78
2017-10-08T05:41:46.445Z,97041.08
2017-10-08T05:42:18.369Z,97042.36
2017-10-08T05:42:50.264Z,97037.25
2017-10-08T05:43:21.960Z,97038.95
2017-10-08T05:43:53.909Z,97038.52
2017-10-08T05:44:25.561Z,97039.80
2017-10-08T05:44:57.205Z,97036.84
2017-10-08T05:45:28.849Z,97038.97
2017-10-08T05:46:00.529Z,97039.83
2017-10-08T05:46:32.172Z,97036.80
2017-10-08T05:47:03.821Z,97035.10
2017-10-08T05:47:35.469Z,97039.78
2017-10-08T05:48:07.351Z,97039.35
2017-10-08T05:48:39.001Z,97040.23
2017-10-08T05:49:10.650Z,97045.35
2017-10-08T05:49:42.293Z,97041.10
2017-10-08T05:50:13.957Z,97041.10
2017-10-08T05:50:45.597Z,97040.23
2017-10-08T05:51:17.239Z,97040.20
2017-10-08T05:51:48.881Z,97049.92
2017-10-08T05:52:20.528Z,97043.87
2017-10-08T05:52:52.177Z,97045.57
2017-10-08T05:53:24.059Z,97041.30
2017-10-08T05:53:55.757Z,97045.55
2017-10-08T05:54:27.610Z,97043.84
2017-10-08T05:54:59.258Z,97040.88
2017-10-08T05:55:31.155Z,97042.14
2017-10-08T05:56:02.805Z,97045.97
2017-10-08T05:56:37.260Z,97039.59
2017-10-08T05:57:16.125Z,97041.70
2017-10-08T05:57:47.773Z,97046.38
2017-10-08T05:58:19.422Z,97055.25
2017-10-08T05:58:51.137Z,97040.78
2017-10-08T05:59:22.893Z,97042.88
2017-10-08T05:59:54.733Z,97049.11
2017-10-08T06:00:26.485Z,97050.34
2017-10-08T06:00:58.137Z,97048.64
2017-10-08T06:01:29.781Z,97054.18
2017-10-08T06:02:01.429Z,97051.64
2017-10-08T06:02:33.105Z,97054.58
2017-10-08T06:03:04.980Z,97051.61
2017-10-08T06:03:36.637Z,97055.34
2017-10-08T06:04:08.501Z,97051.61
2017-10-08T06:04:40.154Z,97053.25
2017-10-08T06:05:11.798Z,97054.53
2017-10-08T06:05:43.445Z,97053.30
2017-10-08T06:06:15.089Z,97056.71
2017-10-08T06:06:46.732Z,97051.14
2017-10-08T06:07:18.377Z,97053.30
2017-10-08T06:07:50.026Z,97054.16
2017-10-08T06:08:21.719Z,97056.24
2017-10-08T06:08:53.380Z,97061.75
2017-10-08T06:09:25.069Z,97056.66
2017-10-08T06:09:56.717Z,97055.89
2017-10-08T06:10:28.559Z,97060.98
2017-10-08T06:11:00.213Z,97064.38
2017-10-08T06:11:31.880Z,97057.17
2017-10-08T06:12:03.729Z,97061.40
2017-10-08T06:12:35.474Z,97065.66